Franklin Park, Illinois
Current Conditions -  °F | °C
As of 2:51 AM on Friday 24 Oct 2014 (Local Time) from KORD Reporting Station
Overcast Overcast  
Wind Chill: 54°   Ceiling: 2200
Heat Index: 54°   Visibility: 10mi
Dew Point: 44°   Wind: 5mph
Humidity: 69%   Direction: 210°SSW
Pressure: 30.04"   Gusts: NA
Location:  41.94°N, 87.86°W
Report Text: KORD 240751Z 21004KT 10SM OVC022 12/07 A3004 RMK AO2 SLP174 T01220067 $
Loading
Personal Weather Stations






























Interactive Weather Map
Tropical Storm Tracking
New forecast layout! Learn more

10-Day Weather Forecast

Advertisements
Track Severe Weather on mobile